sensor_id;sensor_type;location;lat;lon;timestamp;P1;durP1;ratioP1;P2;durP2;ratioP2
5345;SDS011;2695;49.444;11.054;2023-05-16T00:01:56;7.63;;;5.07;;
5345;SDS011;2695;49.444;11.054;2023-05-16T00:04:24;6.20;;;5.40;;
5345;SDS011;2695;49.444;11.054;2023-05-16T00:06:52;7.77;;;5.20;;
5345;SDS011;2695;49.444;11.054;2023-05-16T00:09:21;6.40;;;5.70;;
5345;SDS011;2695;49.444;11.054;2023-05-16T00:11:49;6.10;;;5.03;;
5345;SDS011;2695;49.444;11.054;2023-05-16T00:14:17;5.53;;;4.73;;
5345;SDS011;2695;49.444;11.054;2023-05-16T00:16:47;8.00;;;5.70;;
5345;SDS011;2695;49.444;11.054;2023-05-16T00:19:16;6.80;;;5.90;;
5345;SDS011;2695;49.444;11.054;2023-05-16T00:21:44;6.67;;;5.37;;
5345;SDS011;2695;49.444;11.054;2023-05-16T00:24:12;10.50;;;5.63;;
5345;SDS011;2695;49.444;11.054;2023-05-16T00:26:40;8.10;;;5.63;;
5345;SDS011;2695;49.444;11.054;2023-05-16T00:29:08;6.23;;;5.63;;
5345;SDS011;2695;49.444;11.054;2023-05-16T00:31:36;6.53;;;5.33;;
5345;SDS011;2695;49.444;11.054;2023-05-16T00:34:05;6.20;;;5.20;;
5345;SDS011;2695;49.444;11.054;2023-05-16T00:36:33;7.27;;;5.40;;
5345;SDS011;2695;49.444;11.054;2023-05-16T00:39:02;9.00;;;5.30;;
5345;SDS011;2695;49.444;11.054;2023-05-16T00:41:30;8.93;;;5.90;;
5345;SDS011;2695;49.444;11.054;2023-05-16T00:44:03;7.63;;;6.10;;
5345;SDS011;2695;49.444;11.054;2023-05-16T00:46:32;11.27;;;5.90;;
5345;SDS011;2695;49.444;11.054;2023-05-16T00:49:00;8.03;;;6.03;;
5345;SDS011;2695;49.444;11.054;2023-05-16T00:51:29;10.60;;;6.10;;
5345;SDS011;2695;49.444;11.054;2023-05-16T00:53:57;5.70;;;5.13;;
5345;SDS011;2695;49.444;11.054;2023-05-16T00:56:26;6.60;;;5.87;;
5345;SDS011;2695;49.444;11.054;2023-05-16T00:58:54;6.50;;;5.90;;
5345;SDS011;2695;49.444;11.054;2023-05-16T01:01:24;6.80;;;6.00;;
5345;SDS011;2695;49.444;11.054;2023-05-16T01:03:53;6.80;;;6.03;;
5345;SDS011;2695;49.444;11.054;2023-05-16T01:06:22;8.10;;;6.10;;
5345;SDS011;2695;49.444;11.054;2023-05-16T01:08:52;6.60;;;5.93;;
5345;SDS011;2695;49.444;11.054;2023-05-16T01:11:21;7.60;;;6.53;;
5345;SDS011;2695;49.444;11.054;2023-05-16T01:13:58;7.60;;;6.80;;
5345;SDS011;2695;49.444;11.054;2023-05-16T01:16:38;8.63;;;6.80;;
5345;SDS011;2695;49.444;11.054;2023-05-16T01:19:13;8.90;;;6.60;;
5345;SDS011;2695;49.444;11.054;2023-05-16T01:21:58;8.57;;;7.67;;
5345;SDS011;2695;49.444;11.054;2023-05-16T01:24:33;14.20;;;7.17;;
5345;SDS011;2695;49.444;11.054;2023-05-16T01:27:08;13.40;;;7.70;;
5345;SDS011;2695;49.444;11.054;2023-05-16T01:29:38;9.07;;;7.83;;
5345;SDS011;2695;49.444;11.054;2023-05-16T01:32:06;9.00;;;7.17;;
5345;SDS011;2695;49.444;11.054;2023-05-16T01:34:34;10.10;;;8.00;;
5345;SDS011;2695;49.444;11.054;2023-05-16T01:37:05;8.53;;;7.50;;
5345;SDS011;2695;49.444;11.054;2023-05-16T01:39:41;10.13;;;7.70;;
5345;SDS011;2695;49.444;11.054;2023-05-16T01:42:15;10.13;;;7.60;;
5345;SDS011;2695;49.444;11.054;2023-05-16T01:44:49;9.47;;;7.50;;
5345;SDS011;2695;49.444;11.054;2023-05-16T01:47:22;15.20;;;7.50;;
5345;SDS011;2695;49.444;11.054;2023-05-16T01:49:54;13.03;;;7.17;;
5345;SDS011;2695;49.444;11.054;2023-05-16T01:52:37;8.60;;;7.40;;
5345;SDS011;2695;49.444;11.054;2023-05-16T01:55:09;8.17;;;6.90;;
5345;SDS011;2695;49.444;11.054;2023-05-16T01:57:42;8.60;;;7.17;;
5345;SDS011;2695;49.444;11.054;2023-05-16T02:00:12;11.67;;;7.20;;
5345;SDS011;2695;49.444;11.054;2023-05-16T02:02:41;8.70;;;7.33;;
5345;SDS011;2695;49.444;11.054;2023-05-16T02:05:09;7.67;;;6.73;;
5345;SDS011;2695;49.444;11.054;2023-05-16T02:07:37;10.43;;;7.50;;
5345;SDS011;2695;49.444;11.054;2023-05-16T02:10:06;8.87;;;7.40;;
5345;SDS011;2695;49.444;11.054;2023-05-16T02:12:35;9.30;;;7.33;;
5345;SDS011;2695;49.444;11.054;2023-05-16T02:15:05;12.57;;;7.20;;
5345;SDS011;2695;49.444;11.054;2023-05-16T02:17:35;10.73;;;7.70;;
5345;SDS011;2695;49.444;11.054;2023-05-16T02:20:03;8.13;;;7.03;;
5345;SDS011;2695;49.444;11.054;2023-05-16T02:22:34;8.13;;;6.67;;
5345;SDS011;2695;49.444;11.054;2023-05-16T02:25:04;8.90;;;7.40;;
5345;SDS011;2695;49.444;11.054;2023-05-16T02:27:33;10.63;;;7.47;;
5345;SDS011;2695;49.444;11.054;2023-05-16T02:30:01;9.30;;;7.40;;
5345;SDS011;2695;49.444;11.054;2023-05-16T02:32:32;9.17;;;7.60;;
5345;SDS011;2695;49.444;11.054;2023-05-16T02:35:00;13.57;;;7.63;;
5345;SDS011;2695;49.444;11.054;2023-05-16T02:37:29;11.40;;;7.53;;
5345;SDS011;2695;49.444;11.054;2023-05-16T02:39:57;9.73;;;7.27;;
5345;SDS011;2695;49.444;11.054;2023-05-16T02:42:25;9.47;;;8.03;;
5345;SDS011;2695;49.444;11.054;2023-05-16T02:44:54;8.80;;;7.90;;
5345;SDS011;2695;49.444;11.054;2023-05-16T02:47:22;8.93;;;7.93;;
5345;SDS011;2695;49.444;11.054;2023-05-16T02:49:52;12.10;;;8.50;;
5345;SDS011;2695;49.444;11.054;2023-05-16T02:52:20;14.07;;;7.93;;
5345;SDS011;2695;49.444;11.054;2023-05-16T02:54:48;9.63;;;8.10;;
5345;SDS011;2695;49.444;11.054;2023-05-16T02:57:36;9.37;;;7.63;;
5345;SDS011;2695;49.444;11.054;2023-05-16T03:00:04;11.43;;;8.60;;
5345;SDS011;2695;49.444;11.054;2023-05-16T03:02:35;9.83;;;8.47;;
5345;SDS011;2695;49.444;11.054;2023-05-16T03:05:05;12.87;;;9.30;;
5345;SDS011;2695;49.444;11.054;2023-05-16T03:07:35;15.00;;;9.00;;
5345;SDS011;2695;49.444;11.054;2023-05-16T03:10:03;10.67;;;8.20;;
5345;SDS011;2695;49.444;11.054;2023-05-16T03:12:32;13.10;;;8.47;;
5345;SDS011;2695;49.444;11.054;2023-05-16T03:15:00;11.07;;;9.20;;
5345;SDS011;2695;49.444;11.054;2023-05-16T03:17:29;10.30;;;8.43;;
5345;SDS011;2695;49.444;11.054;2023-05-16T03:19:57;10.73;;;9.30;;
5345;SDS011;2695;49.444;11.054;2023-05-16T03:22:26;11.50;;;9.57;;
5345;SDS011;2695;49.444;11.054;2023-05-16T03:24:54;13.93;;;8.80;;
5345;SDS011;2695;49.444;11.054;2023-05-16T03:27:22;12.13;;;9.20;;
5345;SDS011;2695;49.444;11.054;2023-05-16T03:29:50;10.97;;;9.23;;
5345;SDS011;2695;49.444;11.054;2023-05-16T03:32:18;15.33;;;9.40;;
5345;SDS011;2695;49.444;11.054;2023-05-16T03:34:47;10.13;;;8.57;;
5345;SDS011;2695;49.444;11.054;2023-05-16T03:37:15;12.30;;;9.17;;
5345;SDS011;2695;49.444;11.054;2023-05-16T03:39:44;14.53;;;8.30;;
5345;SDS011;2695;49.444;11.054;2023-05-16T03:42:12;10.30;;;8.77;;
5345;SDS011;2695;49.444;11.054;2023-05-16T03:44:40;10.57;;;9.03;;
5345;SDS011;2695;49.444;11.054;2023-05-16T03:47:08;8.80;;;7.63;;
5345;SDS011;2695;49.444;11.054;2023-05-16T03:49:36;10.13;;;8.93;;
5345;SDS011;2695;49.444;11.054;2023-05-16T03:52:04;15.77;;;9.60;;
5345;SDS011;2695;49.444;11.054;2023-05-16T03:54:33;11.37;;;9.30;;
5345;SDS011;2695;49.444;11.054;2023-05-16T03:57:02;12.63;;;8.87;;
5345;SDS011;2695;49.444;11.054;2023-05-16T03:59:30;12.03;;;9.03;;
5345;SDS011;2695;49.444;11.054;2023-05-16T04:01:59;12.57;;;8.87;;
5345;SDS011;2695;49.444;11.054;2023-05-16T04:04:27;12.03;;;8.93;;
5345;SDS011;2695;49.444;11.054;2023-05-16T04:06:55;11.83;;;8.30;;
5345;SDS011;2695;49.444;11.054;2023-05-16T04:09:23;10.17;;;7.80;;
5345;SDS011;2695;49.444;11.054;2023-05-16T04:11:51;11.80;;;7.77;;
5345;SDS011;2695;49.444;11.054;2023-05-16T04:14:22;9.60;;;8.03;;
5345;SDS011;2695;49.444;11.054;2023-05-16T04:16:50;9.67;;;7.57;;
5345;SDS011;2695;49.444;11.054;2023-05-16T04:19:18;11.10;;;8.37;;
5345;SDS011;2695;49.444;11.054;2023-05-16T04:21:47;9.50;;;8.43;;
5345;SDS011;2695;49.444;11.054;2023-05-16T04:24:14;13.30;;;9.90;;
5345;SDS011;2695;49.444;11.054;2023-05-16T04:26:43;11.03;;;9.40;;
5345;SDS011;2695;49.444;11.054;2023-05-16T04:29:11;14.83;;;9.60;;
5345;SDS011;2695;49.444;11.054;2023-05-16T04:31:41;12.00;;;10.30;;
5345;SDS011;2695;49.444;11.054;2023-05-16T04:34:09;12.97;;;8.60;;
5345;SDS011;2695;49.444;11.054;2023-05-16T04:36:37;10.43;;;9.33;;
5345;SDS011;2695;49.444;11.054;2023-05-16T04:39:05;12.13;;;9.60;;
5345;SDS011;2695;49.444;11.054;2023-05-16T04:41:33;11.20;;;8.77;;
5345;SDS011;2695;49.444;11.054;2023-05-16T04:44:02;11.90;;;8.63;;
5345;SDS011;2695;49.444;11.054;2023-05-16T04:46:30;13.27;;;9.27;;
5345;SDS011;2695;49.444;11.054;2023-05-16T04:49:00;12.43;;;8.63;;
5345;SDS011;2695;49.444;11.054;2023-05-16T04:51:28;13.70;;;8.40;;
5345;SDS011;2695;49.444;11.054;2023-05-16T04:53:57;10.90;;;8.50;;
5345;SDS011;2695;49.444;11.054;2023-05-16T04:56:25;11.90;;;9.03;;
5345;SDS011;2695;49.444;11.054;2023-05-16T04:58:53;10.47;;;9.20;;
5345;SDS011;2695;49.444;11.054;2023-05-16T05:01:21;16.13;;;10.07;;
5345;SDS011;2695;49.444;11.054;2023-05-16T05:03:49;11.60;;;9.40;;
5345;SDS011;2695;49.444;11.054;2023-05-16T05:06:19;15.70;;;9.27;;
5345;SDS011;2695;49.444;11.054;2023-05-16T05:08:47;13.23;;;9.40;;
5345;SDS011;2695;49.444;11.054;2023-05-16T05:11:15;13.93;;;9.00;;
5345;SDS011;2695;49.444;11.054;2023-05-16T05:13:44;10.43;;;8.57;;
5345;SDS011;2695;49.444;11.054;2023-05-16T05:16:12;16.07;;;8.50;;
5345;SDS011;2695;49.444;11.054;2023-05-16T05:18:40;10.87;;;8.80;;
5345;SDS011;2695;49.444;11.054;2023-05-16T05:21:09;12.30;;;8.67;;
5345;SDS011;2695;49.444;11.054;2023-05-16T05:23:39;13.50;;;9.03;;
5345;SDS011;2695;49.444;11.054;2023-05-16T05:26:07;10.10;;;7.37;;
5345;SDS011;2695;49.444;11.054;2023-05-16T05:28:35;10.53;;;8.50;;
5345;SDS011;2695;49.444;11.054;2023-05-16T05:31:05;9.60;;;8.07;;
5345;SDS011;2695;49.444;11.054;2023-05-16T05:33:33;12.93;;;9.50;;
5345;SDS011;2695;49.444;11.054;2023-05-16T05:36:01;9.70;;;8.37;;
5345;SDS011;2695;49.444;11.054;2023-05-16T05:38:29;9.67;;;8.70;;
5345;SDS011;2695;49.444;11.054;2023-05-16T05:40:59;11.40;;;8.10;;
5345;SDS011;2695;49.444;11.054;2023-05-16T05:43:27;12.23;;;8.87;;
5345;SDS011;2695;49.444;11.054;2023-05-16T05:45:55;10.10;;;7.83;;
5345;SDS011;2695;49.444;11.054;2023-05-16T05:48:26;11.50;;;8.70;;
5345;SDS011;2695;49.444;11.054;2023-05-16T05:50:55;26.43;;;8.83;;
5345;SDS011;2695;49.444;11.054;2023-05-16T05:53:23;10.60;;;9.13;;
5345;SDS011;2695;49.444;11.054;2023-05-16T05:55:51;11.63;;;7.70;;
5345;SDS011;2695;49.444;11.054;2023-05-16T05:58:20;8.60;;;7.70;;
5345;SDS011;2695;49.444;11.054;2023-05-16T06:00:49;10.47;;;7.90;;
5345;SDS011;2695;49.444;11.054;2023-05-16T06:03:17;16.63;;;8.43;;
5345;SDS011;2695;49.444;11.054;2023-05-16T06:05:46;11.93;;;7.20;;
5345;SDS011;2695;49.444;11.054;2023-05-16T06:08:14;9.30;;;8.30;;
5345;SDS011;2695;49.444;11.054;2023-05-16T06:10:42;10.50;;;7.50;;
5345;SDS011;2695;49.444;11.054;2023-05-16T06:13:11;8.50;;;7.70;;
5345;SDS011;2695;49.444;11.054;2023-05-16T06:15:40;8.73;;;7.80;;
5345;SDS011;2695;49.444;11.054;2023-05-16T06:18:08;12.40;;;8.00;;
5345;SDS011;2695;49.444;11.054;2023-05-16T06:20:37;8.70;;;7.20;;
5345;SDS011;2695;49.444;11.054;2023-05-16T06:23:05;10.07;;;7.53;;
5345;SDS011;2695;49.444;11.054;2023-05-16T06:25:45;12.90;;;7.07;;
5345;SDS011;2695;49.444;11.054;2023-05-16T06:28:13;11.33;;;6.70;;
5345;SDS011;2695;49.444;11.054;2023-05-16T06:30:42;7.90;;;6.57;;
5345;SDS011;2695;49.444;11.054;2023-05-16T06:33:12;8.77;;;5.85;;
5345;SDS011;2695;49.444;11.054;2023-05-16T06:35:40;12.90;;;7.10;;
5345;SDS011;2695;49.444;11.054;2023-05-16T06:38:08;12.25;;;6.63;;
5345;SDS011;2695;49.444;11.054;2023-05-16T06:40:36;9.50;;;6.30;;
5345;SDS011;2695;49.444;11.054;2023-05-16T06:43:04;9.27;;;6.50;;
5345;SDS011;2695;49.444;11.054;2023-05-16T06:45:33;8.82;;;7.00;;
5345;SDS011;2695;49.444;11.054;2023-05-16T06:48:03;10.98;;;6.43;;
5345;SDS011;2695;49.444;11.054;2023-05-16T06:50:33;8.75;;;6.28;;
5345;SDS011;2695;49.444;11.054;2023-05-16T06:53:01;8.75;;;6.93;;
5345;SDS011;2695;49.444;11.054;2023-05-16T06:55:30;9.07;;;6.82;;
5345;SDS011;2695;49.444;11.054;2023-05-16T06:57:58;7.28;;;6.28;;
5345;SDS011;2695;49.444;11.054;2023-05-16T07:00:26;6.15;;;5.55;;
5345;SDS011;2695;49.444;11.054;2023-05-16T07:02:54;6.18;;;5.57;;
5345;SDS011;2695;49.444;11.054;2023-05-16T07:05:30;6.30;;;5.70;;
5345;SDS011;2695;49.444;11.054;2023-05-16T07:07:58;7.43;;;6.45;;
5345;SDS011;2695;49.444;11.054;2023-05-16T07:10:26;7.28;;;6.45;;
5345;SDS011;2695;49.444;11.054;2023-05-16T07:12:55;9.35;;;5.88;;
5345;SDS011;2695;49.444;11.054;2023-05-16T07:15:24;7.22;;;6.53;;
5345;SDS011;2695;49.444;11.054;2023-05-16T07:17:55;11.32;;;6.25;;
5345;SDS011;2695;49.444;11.054;2023-05-16T07:20:23;8.55;;;5.78;;
5345;SDS011;2695;49.444;11.054;2023-05-16T07:22:53;6.88;;;6.18;;
5345;SDS011;2695;49.444;11.054;2023-05-16T07:25:22;7.38;;;6.18;;
5345;SDS011;2695;49.444;11.054;2023-05-16T07:27:54;7.13;;;6.43;;
5345;SDS011;2695;49.444;11.054;2023-05-16T07:30:22;8.05;;;6.45;;
5345;SDS011;2695;49.444;11.054;2023-05-16T07:32:50;7.25;;;6.55;;
5345;SDS011;2695;49.444;11.054;2023-05-16T07:35:18;8.40;;;6.05;;
5345;SDS011;2695;49.444;11.054;2023-05-16T07:41:36;7.68;;;5.18;;
5345;SDS011;2695;49.444;11.054;2023-05-16T07:44:04;9.38;;;5.45;;
5345;SDS011;2695;49.444;11.054;2023-05-16T07:46:32;7.13;;;5.30;;
5345;SDS011;2695;49.444;11.054;2023-05-16T07:49:00;9.30;;;5.65;;
5345;SDS011;2695;49.444;11.054;2023-05-16T07:51:28;10.48;;;6.13;;
5345;SDS011;2695;49.444;11.054;2023-05-16T07:53:57;8.18;;;6.32;;
5345;SDS011;2695;49.444;11.054;2023-05-16T07:56:25;9.38;;;5.30;;
5345;SDS011;2695;49.444;11.054;2023-05-16T07:58:54;8.57;;;6.47;;
5345;SDS011;2695;49.444;11.054;2023-05-16T08:01:22;5.40;;;4.90;;
5345;SDS011;2695;49.444;11.054;2023-05-16T08:03:51;8.32;;;5.85;;
5345;SDS011;2695;49.444;11.054;2023-05-16T08:06:19;7.30;;;5.35;;
5345;SDS011;2695;49.444;11.054;2023-05-16T08:08:47;9.15;;;5.43;;
5345;SDS011;2695;49.444;11.054;2023-05-16T08:11:15;6.45;;;5.82;;
5345;SDS011;2695;49.444;11.054;2023-05-16T08:13:44;6.50;;;5.25;;
5345;SDS011;2695;49.444;11.054;2023-05-16T08:16:16;10.98;;;5.57;;
5345;SDS011;2695;49.444;11.054;2023-05-16T08:18:44;5.80;;;5.18;;
5345;SDS011;2695;49.444;11.054;2023-05-16T08:21:12;5.10;;;4.60;;
5345;SDS011;2695;49.444;11.054;2023-05-16T08:23:42;7.82;;;5.45;;
5345;SDS011;2695;49.444;11.054;2023-05-16T08:26:10;9.45;;;4.75;;
5345;SDS011;2695;49.444;11.054;2023-05-16T08:28:38;6.97;;;4.82;;
5345;SDS011;2695;49.444;11.054;2023-05-16T08:31:06;5.15;;;4.65;;
5345;SDS011;2695;49.444;11.054;2023-05-16T08:33:36;5.45;;;4.95;;
5345;SDS011;2695;49.444;11.054;2023-05-16T08:36:04;5.38;;;4.85;;
5345;SDS011;2695;49.444;11.054;2023-05-16T08:38:33;6.20;;;5.13;;
5345;SDS011;2695;49.444;11.054;2023-05-16T08:41:01;11.35;;;4.90;;
5345;SDS011;2695;49.444;11.054;2023-05-16T08:43:30;5.53;;;4.75;;
5345;SDS011;2695;49.444;11.054;2023-05-16T08:46:00;5.03;;;4.55;;
5345;SDS011;2695;49.444;11.054;2023-05-16T08:48:28;5.15;;;4.65;;
5345;SDS011;2695;49.444;11.054;2023-05-16T08:51:00;7.95;;;4.78;;
5345;SDS011;2695;49.444;11.054;2023-05-16T08:53:35;8.90;;;4.35;;
5345;SDS011;2695;49.444;11.054;2023-05-16T08:56:06;5.75;;;5.15;;
5345;SDS011;2695;49.444;11.054;2023-05-16T08:58:35;7.65;;;4.68;;
5345;SDS011;2695;49.444;11.054;2023-05-16T09:01:04;5.80;;;5.30;;
5345;SDS011;2695;49.444;11.054;2023-05-16T09:03:34;5.47;;;5.00;;
5345;SDS011;2695;49.444;11.054;2023-05-16T09:06:05;5.25;;;4.60;;
5345;SDS011;2695;49.444;11.054;2023-05-16T09:08:33;6.78;;;4.57;;
5345;SDS011;2695;49.444;11.054;2023-05-16T09:11:02;5.25;;;4.75;;
5345;SDS011;2695;49.444;11.054;2023-05-16T09:13:30;5.93;;;5.40;;
5345;SDS011;2695;49.444;11.054;2023-05-16T09:16:08;9.38;;;5.50;;
5345;SDS011;2695;49.444;11.054;2023-05-16T09:18:38;5.88;;;5.35;;
5345;SDS011;2695;49.444;11.054;2023-05-16T09:21:08;6.28;;;5.38;;
5345;SDS011;2695;49.444;11.054;2023-05-16T09:23:37;5.78;;;5.15;;
5345;SDS011;2695;49.444;11.054;2023-05-16T09:26:05;6.65;;;6.07;;
5345;SDS011;2695;49.444;11.054;2023-05-16T09:28:36;6.57;;;5.80;;
5345;SDS011;2695;49.444;11.054;2023-05-16T09:31:18;6.63;;;6.03;;
5345;SDS011;2695;49.444;11.054;2023-05-16T09:33:48;8.80;;;6.30;;
5345;SDS011;2695;49.444;11.054;2023-05-16T09:36:17;7.38;;;6.65;;
5345;SDS011;2695;49.444;11.054;2023-05-16T09:38:45;9.80;;;7.00;;
5345;SDS011;2695;49.444;11.054;2023-05-16T09:41:13;9.07;;;6.07;;
5345;SDS011;2695;49.444;11.054;2023-05-16T09:43:41;7.20;;;6.50;;
5345;SDS011;2695;49.444;11.054;2023-05-16T09:46:11;9.35;;;8.18;;
5345;SDS011;2695;49.444;11.054;2023-05-16T09:48:40;7.88;;;5.78;;
5345;SDS011;2695;49.444;11.054;2023-05-16T09:51:13;7.68;;;6.90;;
5345;SDS011;2695;49.444;11.054;2023-05-16T09:53:43;8.88;;;6.50;;
5345;SDS011;2695;49.444;11.054;2023-05-16T09:56:13;11.18;;;6.57;;
5345;SDS011;2695;49.444;11.054;2023-05-16T09:58:43;9.88;;;7.10;;
5345;SDS011;2695;49.444;11.054;2023-05-16T10:01:11;9.48;;;6.82;;
5345;SDS011;2695;49.444;11.054;2023-05-16T10:03:40;11.60;;;6.78;;
5345;SDS011;2695;49.444;11.054;2023-05-16T10:06:09;8.57;;;5.60;;
5345;SDS011;2695;49.444;11.054;2023-05-16T10:08:40;9.60;;;6.72;;
5345;SDS011;2695;49.444;11.054;2023-05-16T10:11:10;6.05;;;4.95;;
5345;SDS011;2695;49.444;11.054;2023-05-16T10:13:39;8.93;;;6.53;;
5345;SDS011;2695;49.444;11.054;2023-05-16T10:16:09;7.90;;;5.97;;
5345;SDS011;2695;49.444;11.054;2023-05-16T10:18:38;9.10;;;5.28;;
5345;SDS011;2695;49.444;11.054;2023-05-16T10:21:09;5.55;;;4.60;;
5345;SDS011;2695;49.444;11.054;2023-05-16T10:23:40;9.05;;;6.00;;
5345;SDS011;2695;49.444;11.054;2023-05-16T10:26:11;9.45;;;5.47;;
5345;SDS011;2695;49.444;11.054;2023-05-16T10:28:42;6.70;;;5.43;;
5345;SDS011;2695;49.444;11.054;2023-05-16T10:31:11;8.73;;;5.75;;
5345;SDS011;2695;49.444;11.054;2023-05-16T10:33:40;11.45;;;5.93;;
5345;SDS011;2695;49.444;11.054;2023-05-16T10:36:09;4.55;;;4.15;;
5345;SDS011;2695;49.444;11.054;2023-05-16T10:38:38;5.45;;;4.88;;
5345;SDS011;2695;49.444;11.054;2023-05-16T10:41:07;6.88;;;5.35;;
5345;SDS011;2695;49.444;11.054;2023-05-16T10:43:38;5.78;;;5.25;;
5345;SDS011;2695;49.444;11.054;2023-05-16T10:46:09;5.40;;;4.90;;
5345;SDS011;2695;49.444;11.054;2023-05-16T10:48:40;8.50;;;5.43;;
5345;SDS011;2695;49.444;11.054;2023-05-16T10:54:04;5.32;;;3.92;;
5345;SDS011;2695;49.444;11.054;2023-05-16T10:56:35;5.38;;;4.88;;
5345;SDS011;2695;49.444;11.054;2023-05-16T10:59:03;6.00;;;4.32;;
5345;SDS011;2695;49.444;11.054;2023-05-16T11:01:51;4.30;;;3.90;;
5345;SDS011;2695;49.444;11.054;2023-05-16T11:04:20;5.45;;;4.32;;
5345;SDS011;2695;49.444;11.054;2023-05-16T11:06:49;6.22;;;3.88;;
5345;SDS011;2695;49.444;11.054;2023-05-16T11:09:25;4.82;;;4.13;;
5345;SDS011;2695;49.444;11.054;2023-05-16T11:11:59;6.00;;;4.20;;
5345;SDS011;2695;49.444;11.054;2023-05-16T11:14:35;8.65;;;4.97;;
5345;SDS011;2695;49.444;11.054;2023-05-16T11:17:08;16.08;;;4.90;;
5345;SDS011;2695;49.444;11.054;2023-05-16T11:19:41;4.57;;;3.80;;
5345;SDS011;2695;49.444;11.054;2023-05-16T11:22:12;4.82;;;4.43;;
5345;SDS011;2695;49.444;11.054;2023-05-16T11:24:52;6.32;;;4.82;;
5345;SDS011;2695;49.444;11.054;2023-05-16T11:27:25;6.18;;;4.55;;
5345;SDS011;2695;49.444;11.054;2023-05-16T11:29:54;10.85;;;4.05;;
5345;SDS011;2695;49.444;11.054;2023-05-16T11:32:29;4.53;;;4.10;;
5345;SDS011;2695;49.444;11.054;2023-05-16T11:34:57;5.43;;;4.38;;
5345;SDS011;2695;49.444;11.054;2023-05-16T11:37:25;5.00;;;4.45;;
5345;SDS011;2695;49.444;11.054;2023-05-16T11:39:57;7.57;;;4.65;;
5345;SDS011;2695;49.444;11.054;2023-05-16T11:42:29;5.47;;;4.72;;
5345;SDS011;2695;49.444;11.054;2023-05-16T11:45:02;7.20;;;4.60;;
5345;SDS011;2695;49.444;11.054;2023-05-16T11:47:32;5.70;;;4.38;;
5345;SDS011;2695;49.444;11.054;2023-05-16T11:50:02;5.47;;;4.38;;
5345;SDS011;2695;49.444;11.054;2023-05-16T11:52:30;3.70;;;3.40;;
5345;SDS011;2695;49.444;11.054;2023-05-16T11:54:59;4.05;;;3.65;;
5345;SDS011;2695;49.444;11.054;2023-05-16T11:57:27;4.57;;;3.72;;
5345;SDS011;2695;49.444;11.054;2023-05-16T12:00:00;4.10;;;3.55;;
5345;SDS011;2695;49.444;11.054;2023-05-16T12:02:31;8.38;;;4.20;;
5345;SDS011;2695;49.444;11.054;2023-05-16T12:05:04;7.47;;;5.15;;
5345;SDS011;2695;49.444;11.054;2023-05-16T12:07:35;5.78;;;4.50;;
5345;SDS011;2695;49.444;11.054;2023-05-16T12:10:04;8.07;;;3.70;;
5345;SDS011;2695;49.444;11.054;2023-05-16T12:12:34;3.75;;;3.33;;
5345;SDS011;2695;49.444;11.054;2023-05-16T12:15:04;4.95;;;3.72;;
5345;SDS011;2695;49.444;11.054;2023-05-16T12:17:33;5.32;;;3.50;;
5345;SDS011;2695;49.444;11.054;2023-05-16T12:20:02;4.60;;;3.85;;
5345;SDS011;2695;49.444;11.054;2023-05-16T12:22:32;5.07;;;3.92;;
5345;SDS011;2695;49.444;11.054;2023-05-16T12:27:55;4.77;;;3.77;;
5345;SDS011;2695;49.444;11.054;2023-05-16T12:30:25;4.75;;;4.05;;
5345;SDS011;2695;49.444;11.054;2023-05-16T12:32:55;5.40;;;3.95;;
5345;SDS011;2695;49.444;11.054;2023-05-16T12:35:24;5.53;;;4.13;;
5345;SDS011;2695;49.444;11.054;2023-05-16T12:37:52;5.28;;;4.18;;
5345;SDS011;2695;49.444;11.054;2023-05-16T12:40:21;7.53;;;4.60;;
5345;SDS011;2695;49.444;11.054;2023-05-16T12:42:49;5.03;;;4.53;;
5345;SDS011;2695;49.444;11.054;2023-05-16T12:45:20;8.20;;;4.50;;
5345;SDS011;2695;49.444;11.054;2023-05-16T12:47:49;7.43;;;4.90;;
5345;SDS011;2695;49.444;11.054;2023-05-16T12:50:17;8.93;;;5.53;;
5345;SDS011;2695;49.444;11.054;2023-05-16T12:52:46;7.00;;;4.03;;
5345;SDS011;2695;49.444;11.054;2023-05-16T12:55:15;4.37;;;3.80;;
5345;SDS011;2695;49.444;11.054;2023-05-16T12:57:44;6.47;;;4.00;;
5345;SDS011;2695;49.444;11.054;2023-05-16T13:00:13;6.00;;;4.07;;
5345;SDS011;2695;49.444;11.054;2023-05-16T13:02:45;5.03;;;4.53;;
5345;SDS011;2695;49.444;11.054;2023-05-16T13:05:14;9.03;;;4.50;;
5345;SDS011;2695;49.444;11.054;2023-05-16T13:07:43;6.60;;;4.37;;
5345;SDS011;2695;49.444;11.054;2023-05-16T13:10:11;4.43;;;3.80;;
5345;SDS011;2695;49.444;11.054;2023-05-16T13:12:40;5.27;;;4.00;;
5345;SDS011;2695;49.444;11.054;2023-05-16T13:15:08;4.50;;;3.70;;
5345;SDS011;2695;49.444;11.054;2023-05-16T13:17:38;7.80;;;4.10;;
5345;SDS011;2695;49.444;11.054;2023-05-16T13:20:09;5.10;;;4.00;;
5345;SDS011;2695;49.444;11.054;2023-05-16T13:22:40;5.10;;;3.97;;
5345;SDS011;2695;49.444;11.054;2023-05-16T13:25:09;5.07;;;3.78;;
5345;SDS011;2695;49.444;11.054;2023-05-16T13:27:41;5.85;;;3.92;;
5345;SDS011;2695;49.444;11.054;2023-05-16T13:30:09;3.83;;;3.47;;
5345;SDS011;2695;49.444;11.054;2023-05-16T13:32:38;6.80;;;4.30;;
5345;SDS011;2695;49.444;11.054;2023-05-16T13:35:06;6.70;;;5.13;;
5345;SDS011;2695;49.444;11.054;2023-05-16T13:37:36;5.60;;;4.00;;
5345;SDS011;2695;49.444;11.054;2023-05-16T13:40:05;4.70;;;3.53;;
5345;SDS011;2695;49.444;11.054;2023-05-16T13:42:36;5.93;;;3.90;;
5345;SDS011;2695;49.444;11.054;2023-05-16T13:45:05;5.60;;;3.17;;
5345;SDS011;2695;49.444;11.054;2023-05-16T13:47:34;3.93;;;3.47;;
5345;SDS011;2695;49.444;11.054;2023-05-16T13:50:03;6.13;;;3.10;;
5345;SDS011;2695;49.444;11.054;2023-05-16T13:52:37;4.17;;;3.10;;
5345;SDS011;2695;49.444;11.054;2023-05-16T13:55:05;5.00;;;2.70;;
5345;SDS011;2695;49.444;11.054;2023-05-16T13:57:35;4.93;;;2.90;;
5345;SDS011;2695;49.444;11.054;2023-05-16T14:00:03;3.50;;;2.67;;
5345;SDS011;2695;49.444;11.054;2023-05-16T14:02:57;3.57;;;2.50;;
5345;SDS011;2695;49.444;11.054;2023-05-16T14:05:25;5.10;;;2.93;;
5345;SDS011;2695;49.444;11.054;2023-05-16T14:07:55;5.97;;;2.20;;
5345;SDS011;2695;49.444;11.054;2023-05-16T14:10:23;4.53;;;2.50;;
5345;SDS011;2695;49.444;11.054;2023-05-16T14:12:52;4.23;;;2.30;;
5345;SDS011;2695;49.444;11.054;2023-05-16T14:15:20;2.97;;;2.60;;
5345;SDS011;2695;49.444;11.054;2023-05-16T14:17:48;4.17;;;2.30;;
5345;SDS011;2695;49.444;11.054;2023-05-16T14:20:16;2.43;;;2.20;;
5345;SDS011;2695;49.444;11.054;2023-05-16T14:22:45;2.40;;;2.20;;
5345;SDS011;2695;49.444;11.054;2023-05-16T14:25:14;5.00;;;2.80;;
5345;SDS011;2695;49.444;11.054;2023-05-16T14:27:42;4.60;;;2.33;;
5345;SDS011;2695;49.444;11.054;2023-05-16T14:30:11;4.23;;;3.07;;
5345;SDS011;2695;49.444;11.054;2023-05-16T14:32:39;3.63;;;2.50;;
5345;SDS011;2695;49.444;11.054;2023-05-16T14:35:08;2.70;;;2.33;;
5345;SDS011;2695;49.444;11.054;2023-05-16T14:37:36;4.77;;;2.60;;
5345;SDS011;2695;49.444;11.054;2023-05-16T14:40:05;4.17;;;2.77;;
5345;SDS011;2695;49.444;11.054;2023-05-16T14:42:35;4.67;;;3.77;;
5345;SDS011;2695;49.444;11.054;2023-05-16T14:45:04;2.37;;;2.17;;
5345;SDS011;2695;49.444;11.054;2023-05-16T14:47:33;4.50;;;2.20;;
5345;SDS011;2695;49.444;11.054;2023-05-16T14:50:01;7.30;;;2.40;;
5345;SDS011;2695;49.444;11.054;2023-05-16T14:52:29;3.40;;;2.30;;
5345;SDS011;2695;49.444;11.054;2023-05-16T14:54:57;3.80;;;1.80;;
5345;SDS011;2695;49.444;11.054;2023-05-16T14:57:26;2.50;;;2.17;;
5345;SDS011;2695;49.444;11.054;2023-05-16T14:59:56;4.70;;;2.30;;
5345;SDS011;2695;49.444;11.054;2023-05-16T15:02:25;2.20;;;2.00;;
5345;SDS011;2695;49.444;11.054;2023-05-16T15:04:53;8.73;;;2.00;;
5345;SDS011;2695;49.444;11.054;2023-05-16T15:07:21;2.33;;;1.93;;
5345;SDS011;2695;49.444;11.054;2023-05-16T15:09:49;3.70;;;2.33;;
5345;SDS011;2695;49.444;11.054;2023-05-16T15:12:17;2.87;;;2.40;;
5345;SDS011;2695;49.444;11.054;2023-05-16T15:14:45;3.37;;;2.47;;
5345;SDS011;2695;49.444;11.054;2023-05-16T15:17:15;4.50;;;3.43;;
5345;SDS011;2695;49.444;11.054;2023-05-16T15:19:43;2.47;;;2.27;;
5345;SDS011;2695;49.444;11.054;2023-05-16T15:22:13;3.57;;;2.93;;